KPIB/PIB METAR and TAF weather

Enter ICAO airport designator
Station Type Date Time Source
KPIB METAR 2019/12/07 16:56 UTC NOAA

KPIB 071656Z AUTO 36005KT 10SM OVC013 13/11 A3026 RMK AO2 SLP247 T01280111 PNO $


Station Type Date Time Source
KPIB Decoded METAR 2019/12/07 16:56 UTC NOAA

Hattiesburg/Laurel, Hattiesburg-Laurel Regional Airport, MS, United States (KPIB) 31-28N 089-20W
Dec 07, 2019 - 11:56 AM EST / 2019.12.07 1656 UTC
Wind: from the N (360 degrees) at 6 MPH (5 KT):0
Visibility: 10 mile(s):0
Sky conditions: overcast
Temperature: 55.0 F (12.8 C)
Dew Point: 52.0 F (11.1 C)
Relative Humidity: 89%
Pressure (altimeter): 30.26 in. Hg (1024 hPa)
ob: KPIB 071656Z AUTO 36005KT 10SM OVC013 13/11 A3026 RMK AO2 SLP247 T01280111 PNO
cycle: 17

Station Type Date Time Source
KPIB TAF 2019/12/07 12:24 UTC NOAA

TAF KPIB 071120Z 0712/0812 01005KT 6SM BR OVC007
FM071700 02005KT P6SM BKN015 OVC025

Example: see airport list